Time;durP1;ratioP1;P1;durP2;ratioP2;P2;SDS_P1;SDS_P2;PMS_P1;PMS_P2;Temp;Humidity;BMP_temperature;BMP_pressure;BME280_temperature;BME280_humidity;BME280_pressure;Samples;Min_cycle;Max_cycle;Signal;HPM_P1;HPM_P2
2022/05/31 00:01:30;;;;;;;6.85;4.43;;;;;;;;;;4984974;28;20433;-72
2022/05/31 00:03:56;;;;;;;9.85;4.82;;;;;;;;;;5002814;28;20164;-72
2022/05/31 00:06:21;;;;;;;9.48;4.03;;;;;;;;;;5004092;28;20344;-72
2022/05/31 00:08:46;;;;;;;5.13;3.87;;;;;;;;;;4994712;28;20112;-72
2022/05/31 00:11:11;;;;;;;6.13;3.83;;;;;;;;;;5001799;28;20764;-72
2022/05/31 00:13:36;;;;;;;7.80;3.92;;;;;;;;;;4999512;28;20271;-72
2022/05/31 00:16:02;;;;;;;6.43;4.15;;;;;;;;;;5004923;28;20066;-72
2022/05/31 00:18:27;;;;;;;7.05;4.18;;;;;;;;;;4998656;28;20034;-72
2022/05/31 00:20:53;;;;;;;6.88;4.25;;;;;;;;;;5004704;28;20065;-72
2022/05/31 00:23:19;;;;;;;10.10;4.22;;;;;;;;;;5002294;28;20064;-72
2022/05/31 00:25:44;;;;;;;7.35;4.53;;;;;;;;;;5001923;28;20275;-72
2022/05/31 00:28:09;;;;;;;5.78;3.90;;;;;;;;;;5001009;28;20080;-72
2022/05/31 00:30:36;;;;;;;6.50;4.28;;;;;;;;;;5000956;28;20038;-72
2022/05/31 00:33:02;;;;;;;9.48;3.95;;;;;;;;;;5005434;28;20148;-72
2022/05/31 00:35:29;;;;;;;6.75;4.32;;;;;;;;;;5002310;28;20034;-72
2022/05/31 00:37:54;;;;;;;5.40;3.80;;;;;;;;;;4998369;28;20021;-72
2022/05/31 00:40:21;;;;;;;6.90;4.05;;;;;;;;;;4996750;28;20045;-72
2022/05/31 00:42:54;;;;;;;6.20;4.05;;;;;;;;;;4997557;28;20022;-72
2022/05/31 00:45:24;;;;;;;6.00;3.80;;;;;;;;;;5000443;28;20023;-72
2022/05/31 00:47:50;;;;;;;8.75;3.92;;;;;;;;;;5003296;28;20022;-72
2022/05/31 00:50:22;;;;;;;4.95;4.00;;;;;;;;;;4996322;28;20019;-72
2022/05/31 00:52:49;;;;;;;7.72;5.05;;;;;;;;;;5002022;28;20136;-72
2022/05/31 00:55:22;;;;;;;6.75;3.85;;;;;;;;;;4999721;28;20072;-72
2022/05/31 00:57:56;;;;;;;4.97;3.92;;;;;;;;;;4998506;28;20049;-72
2022/05/31 01:00:21;;;;;;;7.55;3.55;;;;;;;;;;4997185;28;20165;-72
2022/05/31 01:02:46;;;;;;;7.13;4.25;;;;;;;;;;5002822;28;20037;-72
2022/05/31 01:05:12;;;;;;;6.05;3.80;;;;;;;;;;4998726;28;20018;-72
2022/05/31 01:07:38;;;;;;;11.50;4.80;;;;;;;;;;5003160;28;20065;-72
2022/05/31 01:10:04;;;;;;;5.40;3.73;;;;;;;;;;4998188;28;20121;-72
2022/05/31 01:12:29;;;;;;;7.18;3.88;;;;;;;;;;5004199;28;20298;-71
2022/05/31 01:14:55;;;;;;;5.70;4.07;;;;;;;;;;5001459;28;20029;-72
2022/05/31 01:17:21;;;;;;;8.70;3.80;;;;;;;;;;4999547;28;20329;-72
2022/05/31 01:19:56;;;;;;;5.82;3.85;;;;;;;;;;4998258;28;20228;-72
2022/05/31 01:22:24;;;;;;;4.95;3.50;;;;;;;;;;4999181;28;20025;-72
2022/05/31 01:24:53;;;;;;;8.38;3.85;;;;;;;;;;5003798;28;20468;-72
2022/05/31 01:27:32;;;;;;;6.53;4.43;;;;;;;;;;5001959;28;20018;-72
2022/05/31 01:29:58;;;;;;;6.20;3.67;;;;;;;;;;4995184;28;20026;-72
2022/05/31 01:32:24;;;;;;;6.45;4.00;;;;;;;;;;4999470;28;20425;-72
2022/05/31 01:34:55;;;;;;;4.97;3.58;;;;;;;;;;4998908;28;20489;-72
2022/05/31 01:37:22;;;;;;;8.23;4.10;;;;;;;;;;4985492;28;20033;-72
2022/05/31 01:39:49;;;;;;;4.57;3.80;;;;;;;;;;4997788;28;20050;-72
2022/05/31 01:42:19;;;;;;;5.97;3.75;;;;;;;;;;5001353;28;20032;-71
2022/05/31 01:44:48;;;;;;;6.40;4.20;;;;;;;;;;5000876;28;20433;-68
2022/05/31 01:47:13;;;;;;;9.70;3.75;;;;;;;;;;5001073;28;20022;-72
2022/05/31 01:49:40;;;;;;;5.63;4.43;;;;;;;;;;5000829;28;20029;-71
2022/05/31 01:52:06;;;;;;;7.25;4.10;;;;;;;;;;4999128;28;20025;-72
2022/05/31 01:54:32;;;;;;;8.82;5.20;;;;;;;;;;4986086;28;20385;-72
2022/05/31 01:57:01;;;;;;;6.50;4.13;;;;;;;;;;5000162;28;20030;-72
2022/05/31 01:59:29;;;;;;;9.10;4.45;;;;;;;;;;4999745;28;20030;-72
2022/05/31 02:01:56;;;;;;;10.85;4.55;;;;;;;;;;5000869;28;20030;-72
2022/05/31 02:04:21;;;;;;;7.20;4.25;;;;;;;;;;4999836;28;20113;-72
2022/05/31 02:06:46;;;;;;;8.23;4.37;;;;;;;;;;5000612;28;20145;-72
2022/05/31 02:09:12;;;;;;;10.35;4.00;;;;;;;;;;4985994;28;20642;-72
2022/05/31 02:11:38;;;;;;;5.20;3.75;;;;;;;;;;4999746;28;20026;-72
2022/05/31 02:14:04;;;;;;;6.45;4.07;;;;;;;;;;5003092;28;20029;-72
2022/05/31 02:16:29;;;;;;;5.75;4.40;;;;;;;;;;5003918;28;20040;-72
2022/05/31 02:21:39;;;;;;;7.78;4.35;;;;;;;;;;5002128;28;20053;-72
2022/05/31 02:24:05;;;;;;;5.72;4.28;;;;;;;;;;5004924;28;20021;-72
2022/05/31 02:26:31;;;;;;;5.47;4.28;;;;;;;;;;5001975;28;20030;-72
2022/05/31 02:28:56;;;;;;;7.28;4.78;;;;;;;;;;5004640;28;20033;-72
2022/05/31 02:31:21;;;;;;;6.90;5.28;;;;;;;;;;4999349;28;20029;-72
2022/05/31 02:33:47;;;;;;;7.90;4.25;;;;;;;;;;5008395;28;20029;-72
2022/05/31 02:36:12;;;;;;;8.53;4.10;;;;;;;;;;5003152;28;20440;-72
2022/05/31 02:38:37;;;;;;;8.07;4.10;;;;;;;;;;5002755;28;20691;-72
2022/05/31 02:41:02;;;;;;;6.30;4.13;;;;;;;;;;4999426;28;20044;-72
2022/05/31 02:43:28;;;;;;;5.32;4.07;;;;;;;;;;5009102;28;20046;-71
2022/05/31 02:45:53;;;;;;;8.50;4.00;;;;;;;;;;5005109;28;21512;-71
2022/05/31 02:48:19;;;;;;;9.40;4.65;;;;;;;;;;5006669;28;20345;-71
2022/05/31 02:50:44;;;;;;;7.75;5.50;;;;;;;;;;4998704;28;20113;-72
2022/05/31 02:53:10;;;;;;;9.80;5.53;;;;;;;;;;5005694;28;20045;-72
2022/05/31 02:55:35;;;;;;;8.27;5.13;;;;;;;;;;5007445;28;20729;-72
2022/05/31 02:58:00;;;;;;;12.43;5.72;;;;;;;;;;5003149;28;20419;-72
2022/05/31 03:00:25;;;;;;;9.63;4.57;;;;;;;;;;4999552;28;20044;-72
2022/05/31 03:02:50;;;;;;;6.18;4.78;;;;;;;;;;5004160;28;20279;-72
2022/05/31 03:05:16;;;;;;;7.18;4.95;;;;;;;;;;5005451;28;20030;-72
2022/05/31 03:07:41;;;;;;;12.40;5.35;;;;;;;;;;5005260;28;20350;-72
2022/05/31 03:10:06;;;;;;;6.88;4.68;;;;;;;;;;5002205;28;20405;-72
2022/05/31 03:12:32;;;;;;;11.68;5.35;;;;;;;;;;5002399;28;20337;-72
2022/05/31 03:15:06;;;;;;;7.40;4.95;;;;;;;;;;5003112;28;20023;-72
2022/05/31 03:17:42;;;;;;;7.68;4.88;;;;;;;;;;4996942;28;20030;-72
2022/05/31 03:20:17;;;;;;;8.35;4.97;;;;;;;;;;4999177;28;20548;-72
2022/05/31 03:22:46;;;;;;;8.15;5.25;;;;;;;;;;4998858;28;20404;-72
2022/05/31 03:25:14;;;;;;;6.30;5.22;;;;;;;;;;4998884;28;20458;-72
2022/05/31 03:27:39;;;;;;;6.82;5.15;;;;;;;;;;5007599;28;20111;-72
2022/05/31 03:30:05;;;;;;;11.93;6.25;;;;;;;;;;4997497;28;20488;-72
2022/05/31 03:32:32;;;;;;;9.40;5.55;;;;;;;;;;5001916;28;20084;-72
2022/05/31 03:34:57;;;;;;;7.18;5.75;;;;;;;;;;5003337;28;20044;-71
2022/05/31 03:37:22;;;;;;;8.00;5.50;;;;;;;;;;5003177;28;20540;-71
2022/05/31 03:39:47;;;;;;;10.37;6.23;;;;;;;;;;4997376;28;20022;-72
2022/05/31 03:42:13;;;;;;;11.95;5.93;;;;;;;;;;5003490;28;20633;-71
2022/05/31 03:44:38;;;;;;;12.18;6.22;;;;;;;;;;5002577;28;20318;-72
2022/05/31 03:47:03;;;;;;;13.07;7.30;;;;;;;;;;5004087;28;20081;-71
2022/05/31 03:49:30;;;;;;;8.18;5.82;;;;;;;;;;5007111;28;20294;-72
2022/05/31 03:51:55;;;;;;;10.38;6.80;;;;;;;;;;5003759;28;20049;-72
2022/05/31 03:54:20;;;;;;;10.05;7.13;;;;;;;;;;5003122;28;20464;-72
2022/05/31 03:56:45;;;;;;;12.48;7.55;;;;;;;;;;4998879;28;20471;-72
2022/05/31 03:59:10;;;;;;;18.80;7.70;;;;;;;;;;4984818;28;20022;-72
2022/05/31 04:01:35;;;;;;;14.93;7.72;;;;;;;;;;4984453;28;20350;-72
2022/05/31 04:04:03;;;;;;;15.13;6.90;;;;;;;;;;5001253;28;20041;-70
2022/05/31 04:06:28;;;;;;;12.10;7.10;;;;;;;;;;5007717;28;20286;-70
2022/05/31 04:08:53;;;;;;;9.18;6.20;;;;;;;;;;5003583;28;20022;-72
2022/05/31 04:11:18;;;;;;;10.65;6.68;;;;;;;;;;5008407;28;20041;-72
2022/05/31 04:13:43;;;;;;;10.75;6.93;;;;;;;;;;5011991;28;20034;-72
2022/05/31 04:16:10;;;;;;;11.25;6.70;;;;;;;;;;5009898;28;20275;-72
2022/05/31 04:18:37;;;;;;;13.32;7.10;;;;;;;;;;4999316;28;20028;-72
2022/05/31 04:21:03;;;;;;;13.35;7.32;;;;;;;;;;5000498;28;20025;-72
2022/05/31 04:26:12;;;;;;;15.45;7.60;;;;;;;;;;5000807;28;20074;-71
2022/05/31 04:28:37;;;;;;;12.20;7.65;;;;;;;;;;5004266;28;20387;-72
2022/05/31 04:31:02;;;;;;;11.32;7.35;;;;;;;;;;5001466;28;20295;-72
2022/05/31 04:33:28;;;;;;;9.77;6.80;;;;;;;;;;4998271;28;20073;-72
2022/05/31 04:36:07;;;;;;;13.60;7.57;;;;;;;;;;4990524;28;20302;-72
2022/05/31 04:38:32;;;;;;;12.25;7.13;;;;;;;;;;4997838;28;20022;-72
2022/05/31 04:40:58;;;;;;;11.32;7.35;;;;;;;;;;4996698;28;20040;-76
2022/05/31 04:43:23;;;;;;;12.27;7.20;;;;;;;;;;4991297;28;20038;-76
2022/05/31 04:45:48;;;;;;;13.10;7.55;;;;;;;;;;4998525;28;20072;-72
2022/05/31 04:48:13;;;;;;;12.63;7.77;;;;;;;;;;4989538;28;20126;-72
2022/05/31 04:50:39;;;;;;;8.98;6.95;;;;;;;;;;4990941;28;20863;-72
2022/05/31 04:53:05;;;;;;;13.10;7.65;;;;;;;;;;4992947;28;20030;-73
2022/05/31 04:55:30;;;;;;;14.18;8.43;;;;;;;;;;4992832;28;20232;-72
2022/05/31 04:57:55;;;;;;;12.33;8.20;;;;;;;;;;5001548;28;20041;-73
2022/05/31 05:00:21;;;;;;;15.48;9.57;;;;;;;;;;5002543;28;20303;-71
2022/05/31 05:02:46;;;;;;;15.60;8.25;;;;;;;;;;4998897;28;20057;-73
2022/05/31 05:05:11;;;;;;;13.43;8.95;;;;;;;;;;5000242;28;20358;-72
2022/05/31 05:07:36;;;;;;;15.02;9.20;;;;;;;;;;4999691;28;20055;-72
2022/05/31 05:10:04;;;;;;;15.57;8.97;;;;;;;;;;5002998;28;20034;-72
2022/05/31 05:12:29;;;;;;;13.32;8.02;;;;;;;;;;5002756;28;20303;-73
2022/05/31 05:14:54;;;;;;;18.48;8.88;;;;;;;;;;4985460;28;20030;-72
2022/05/31 05:17:22;;;;;;;15.25;9.15;;;;;;;;;;4985915;28;20067;-72
2022/05/31 05:19:47;;;;;;;16.88;9.13;;;;;;;;;;4998674;28;20053;-72
2022/05/31 05:22:12;;;;;;;11.75;7.85;;;;;;;;;;5003790;28;20026;-72
2022/05/31 05:24:37;;;;;;;17.90;8.80;;;;;;;;;;5002405;28;20053;-72
2022/05/31 05:27:02;;;;;;;17.42;8.73;;;;;;;;;;4994871;28;20318;-72
2022/05/31 05:32:11;;;;;;;22.58;9.90;;;;;;;;;;5005786;28;20040;-72
2022/05/31 05:34:37;;;;;;;22.20;9.10;;;;;;;;;;5004559;28;20009;-73
2022/05/31 05:37:02;;;;;;;16.65;10.27;;;;;;;;;;5009153;28;20749;-72
2022/05/31 05:39:27;;;;;;;16.50;9.43;;;;;;;;;;5004779;28;20117;-72
2022/05/31 05:41:52;;;;;;;18.45;10.23;;;;;;;;;;5012063;28;20029;-72
2022/05/31 05:44:17;;;;;;;15.88;9.23;;;;;;;;;;5007154;28;20030;-72
2022/05/31 05:46:43;;;;;;;17.80;10.10;;;;;;;;;;5013685;28;20041;-72
2022/05/31 05:49:08;;;;;;;19.90;9.95;;;;;;;;;;4999867;28;20729;-73
2022/05/31 05:51:34;;;;;;;17.17;9.52;;;;;;;;;;5003607;28;20037;-72
2022/05/31 05:54:02;;;;;;;19.98;9.70;;;;;;;;;;5005234;28;20492;-72
2022/05/31 05:56:27;;;;;;;13.65;8.75;;;;;;;;;;5007389;28;20014;-72
2022/05/31 05:58:53;;;;;;;17.77;8.80;;;;;;;;;;4997660;28;20022;-74
2022/05/31 06:01:20;;;;;;;29.10;10.07;;;;;;;;;;4980164;28;20276;-72
2022/05/31 06:03:50;;;;;;;30.33;9.57;;;;;;;;;;5006877;28;20329;-72
2022/05/31 06:06:16;;;;;;;18.30;9.48;;;;;;;;;;5008880;28;20034;-72
2022/05/31 06:08:47;;;;;;;17.55;9.30;;;;;;;;;;5002750;28;20033;-72
2022/05/31 06:11:23;;;;;;;18.40;9.63;;;;;;;;;;5006372;28;20045;-72
2022/05/31 06:13:55;;;;;;;16.00;9.15;;;;;;;;;;4982879;28;20018;-73
2022/05/31 06:16:23;;;;;;;18.55;9.32;;;;;;;;;;5008105;28;20026;-72
2022/05/31 06:18:50;;;;;;;15.27;8.70;;;;;;;;;;4994906;28;20052;-72
2022/05/31 06:21:17;;;;;;;14.40;7.95;;;;;;;;;;5000423;28;20026;-73
2022/05/31 06:23:43;;;;;;;15.30;8.90;;;;;;;;;;5009952;28;20167;-74
2022/05/31 06:26:08;;;;;;;17.02;9.27;;;;;;;;;;5016915;28;20541;-73
2022/05/31 06:28:33;;;;;;;11.25;8.48;;;;;;;;;;4991361;28;20033;-73
2022/05/31 06:30:58;;;;;;;11.47;8.40;;;;;;;;;;5004529;28;20065;-73
2022/05/31 06:33:23;;;;;;;14.07;9.55;;;;;;;;;;5006151;28;20283;-72
2022/05/31 06:35:49;;;;;;;14.73;7.97;;;;;;;;;;5020352;28;20422;-73
2022/05/31 06:38:16;;;;;;;21.10;9.65;;;;;;;;;;5007739;28;20388;-72
2022/05/31 06:40:41;;;;;;;20.05;8.30;;;;;;;;;;5008138;28;20025;-72
2022/05/31 06:43:06;;;;;;;15.50;8.48;;;;;;;;;;5012057;28;20380;-72
2022/05/31 06:45:31;;;;;;;13.05;7.93;;;;;;;;;;5007251;28;20033;-73
2022/05/31 06:47:57;;;;;;;14.68;8.80;;;;;;;;;;5010025;28;20658;-73
2022/05/31 06:50:22;;;;;;;29.75;8.85;;;;;;;;;;4989684;28;20030;-72
2022/05/31 06:58:14;;;;;;;72.45;14.60;;;;;;;;;;5017499;28;20056;-72
2022/05/31 07:00:40;;;;;;;13.40;8.45;;;;;;;;;;5007069;28;20503;-73
2022/05/31 07:03:05;;;;;;;17.50;8.65;;;;;;;;;;5008212;28;20037;-72
2022/05/31 07:05:30;;;;;;;14.10;8.13;;;;;;;;;;5013731;28;20036;-73
2022/05/31 07:07:56;;;;;;;13.60;7.97;;;;;;;;;;5016757;28;20251;-74
2022/05/31 07:10:21;;;;;;;12.73;8.13;;;;;;;;;;5007073;28;20092;-74
2022/05/31 07:12:48;;;;;;;19.20;8.82;;;;;;;;;;5021704;28;20028;-74
2022/05/31 07:15:14;;;;;;;17.15;8.75;;;;;;;;;;5014445;28;20460;-72
2022/05/31 07:17:39;;;;;;;13.63;7.93;;;;;;;;;;5009310;28;20023;-73
2022/05/31 07:20:05;;;;;;;15.52;9.05;;;;;;;;;;4994179;28;20022;-73
2022/05/31 07:22:30;;;;;;;15.82;9.10;;;;;;;;;;5008524;28;20036;-74
2022/05/31 07:24:56;;;;;;;15.77;8.38;;;;;;;;;;5018896;28;20026;-73
2022/05/31 07:27:21;;;;;;;16.27;9.35;;;;;;;;;;5016743;28;20026;-74
2022/05/31 07:29:46;;;;;;;12.47;8.43;;;;;;;;;;4990278;28;20030;-73
2022/05/31 07:32:11;;;;;;;14.20;8.38;;;;;;;;;;5011271;28;20279;-73
2022/05/31 07:34:36;;;;;;;14.27;8.77;;;;;;;;;;5010992;28;20057;-74
2022/05/31 07:37:02;;;;;;;14.88;9.85;;;;;;;;;;5012325;28;20268;-75
2022/05/31 07:39:27;;;;;;;18.90;8.45;;;;;;;;;;5004274;28;20026;-73
2022/05/31 07:41:54;;;;;;;13.37;7.57;;;;;;;;;;5012230;28;20113;-73
2022/05/31 07:44:19;;;;;;;13.45;8.52;;;;;;;;;;5019915;28;20274;-73
2022/05/31 07:46:45;;;;;;;16.02;8.77;;;;;;;;;;5006593;28;20464;-74
2022/05/31 07:49:10;;;;;;;14.80;8.52;;;;;;;;;;5009657;28;20480;-72
2022/05/31 07:51:35;;;;;;;41.92;10.77;;;;;;;;;;5013451;28;20036;-75
2022/05/31 07:54:00;;;;;;;11.63;7.20;;;;;;;;;;5009878;28;20073;-73
2022/05/31 07:56:26;;;;;;;81.83;13.87;;;;;;;;;;5017502;28;20271;-74
2022/05/31 07:58:51;;;;;;;13.15;5.72;;;;;;;;;;5012906;28;20298;-72
2022/05/31 08:01:19;;;;;;;11.95;7.45;;;;;;;;;;5008281;28;20017;-69
2022/05/31 08:03:44;;;;;;;9.27;5.93;;;;;;;;;;5007293;28;20038;-74
2022/05/31 08:06:14;;;;;;;10.20;6.18;;;;;;;;;;5009186;28;20471;-72
2022/05/31 08:08:39;;;;;;;8.30;6.15;;;;;;;;;;5011947;28;20030;-73
2022/05/31 08:11:07;;;;;;;8.73;5.60;;;;;;;;;;5008880;28;20036;-71
2022/05/31 08:13:32;;;;;;;7.70;5.70;;;;;;;;;;5012612;28;20061;-72
2022/05/31 08:15:58;;;;;;;10.30;5.57;;;;;;;;;;5007058;28;20053;-71
2022/05/31 08:18:23;;;;;;;11.95;5.72;;;;;;;;;;5013181;28;20033;-70
2022/05/31 08:20:48;;;;;;;7.45;5.03;;;;;;;;;;5009959;28;20455;-72
2022/05/31 08:23:14;;;;;;;8.80;6.03;;;;;;;;;;5011677;28;20062;-74
2022/05/31 08:25:39;;;;;;;9.37;6.10;;;;;;;;;;5007160;28;20342;-71
2022/05/31 08:28:04;;;;;;;8.90;5.23;;;;;;;;;;5011840;28;20053;-74
2022/05/31 08:30:30;;;;;;;9.13;5.43;;;;;;;;;;5002600;28;20271;-74
2022/05/31 08:32:55;;;;;;;6.47;4.22;;;;;;;;;;5014263;28;20025;-73
2022/05/31 08:35:20;;;;;;;13.47;4.93;;;;;;;;;;4990245;28;20464;-71
2022/05/31 08:37:46;;;;;;;7.20;4.60;;;;;;;;;;4998409;28;20045;-71
2022/05/31 08:40:11;;;;;;;9.13;4.75;;;;;;;;;;5010819;28;20260;-69
2022/05/31 08:42:44;;;;;;;8.13;4.43;;;;;;;;;;4999488;28;20037;-74
2022/05/31 08:45:28;;;;;;;5.47;4.45;;;;;;;;;;4990445;28;20024;-72
2022/05/31 08:48:07;;;;;;;7.88;4.40;;;;;;;;;;5008952;28;20452;-71
2022/05/31 08:53:42;;;;;;;7.88;5.32;;;;;;;;;;5017581;28;20075;-75
2022/05/31 08:59:14;;;;;;;5.22;4.10;;;;;;;;;;4996315;28;20025;-72
2022/05/31 09:01:47;;;;;;;13.45;5.03;;;;;;;;;;5012957;28;20067;-72
2022/05/31 09:04:25;;;;;;;9.25;4.70;;;;;;;;;;5003571;28;20021;-73
2022/05/31 09:06:52;;;;;;;6.53;5.38;;;;;;;;;;5010683;28;20033;-72
2022/05/31 09:09:23;;;;;;;32.08;6.03;;;;;;;;;;5008182;28;20034;-72
2022/05/31 09:11:49;;;;;;;11.15;5.22;;;;;;;;;;5007132;28;20053;-71
2022/05/31 09:14:21;;;;;;;4.95;3.72;;;;;;;;;;5015913;28;20500;-73
2022/05/31 09:17:05;;;;;;;6.75;5.07;;;;;;;;;;5008443;28;20108;-76
2022/05/31 09:19:49;;;;;;;9.77;5.03;;;;;;;;;;4998806;28;20076;-72
2022/05/31 09:22:14;;;;;;;6.10;3.50;;;;;;;;;;5013372;28;20069;-71
2022/05/31 09:24:41;;;;;;;12.25;4.63;;;;;;;;;;5015542;28;20515;-72
2022/05/31 09:27:08;;;;;;;7.97;4.35;;;;;;;;;;5003311;28;20531;-72
2022/05/31 09:29:43;;;;;;;6.50;3.70;;;;;;;;;;5009451;28;20573;-70
2022/05/31 09:32:23;;;;;;;6.57;4.13;;;;;;;;;;5009697;28;20029;-73
2022/05/31 09:35:07;;;;;;;10.85;4.00;;;;;;;;;;5001302;28;20025;-71
2022/05/31 09:37:45;;;;;;;14.93;4.15;;;;;;;;;;5005093;28;20446;-71
2022/05/31 09:40:29;;;;;;;11.93;4.30;;;;;;;;;;5009198;28;20052;-71
2022/05/31 09:43:13;;;;;;;5.45;4.95;;;;;;;;;;4991963;28;20037;-72
2022/05/31 09:45:40;;;;;;;6.63;5.03;;;;;;;;;;5008317;28;20028;-74
2022/05/31 09:48:06;;;;;;;7.78;4.05;;;;;;;;;;4990805;28;20033;-73
2022/05/31 09:50:31;;;;;;;8.52;4.72;;;;;;;;;;4993462;28;20026;-73
2022/05/31 09:52:57;;;;;;;14.18;5.47;;;;;;;;;;5005416;28;20017;-73
2022/05/31 09:58:22;;;;;;;9.40;5.43;;;;;;;;;;5013637;28;20029;-75
2022/05/31 10:01:00;;;;;;;6.05;4.30;;;;;;;;;;4988751;28;20018;-72
2022/05/31 10:03:36;;;;;;;8.50;5.43;;;;;;;;;;5019798;28;20047;-76
2022/05/31 10:06:05;;;;;;;9.18;5.32;;;;;;;;;;5004413;28;20657;-74
2022/05/31 10:08:32;;;;;;;6.97;5.13;;;;;;;;;;5010223;28;20029;-74
2022/05/31 10:11:02;;;;;;;6.65;5.03;;;;;;;;;;4989942;28;20480;-77
2022/05/31 10:13:53;;;;;;;6.88;4.82;;;;;;;;;;4990661;28;20346;-72
2022/05/31 10:16:23;;;;;;;5.15;4.20;;;;;;;;;;4995374;28;20543;-74
2022/05/31 10:18:56;;;;;;;5.65;4.82;;;;;;;;;;5010351;28;20496;-74
2022/05/31 10:21:33;;;;;;;5.95;5.38;;;;;;;;;;4986004;28;20962;-76
2022/05/31 10:24:06;;;;;;;28.50;5.57;;;;;;;;;;4999214;28;20325;-71
2022/05/31 10:26:32;;;;;;;8.77;5.20;;;;;;;;;;4999682;28;20030;-73
2022/05/31 10:29:00;;;;;;;6.93;4.97;;;;;;;;;;5004681;28;20030;-72
2022/05/31 10:31:39;;;;;;;8.07;5.18;;;;;;;;;;5008608;28;20120;-80
2022/05/31 10:34:06;;;;;;;6.40;3.67;;;;;;;;;;5019066;28;20222;-71
2022/05/31 10:36:33;;;;;;;33.53;5.60;;;;;;;;;;5006793;28;20065;-75
2022/05/31 10:39:09;;;;;;;4.88;4.38;;;;;;;;;;4993588;28;20469;-73
2022/05/31 10:41:35;;;;;;;4.78;3.72;;;;;;;;;;5019257;28;20057;-70
2022/05/31 10:44:06;;;;;;;6.95;4.93;;;;;;;;;;5018093;28;20109;-70
2022/05/31 10:46:34;;;;;;;6.00;4.43;;;;;;;;;;5006317;28;20364;-70
2022/05/31 10:49:16;;;;;;;5.90;4.07;;;;;;;;;;5005390;28;20108;-70
2022/05/31 10:51:50;;;;;;;6.22;4.72;;;;;;;;;;5004191;28;20018;-73
2022/05/31 10:54:34;;;;;;;6.32;3.95;;;;;;;;;;5016290;28;20148;-71
2022/05/31 10:57:02;;;;;;;5.50;4.15;;;;;;;;;;5015546;28;20064;-73
2022/05/31 10:59:41;;;;;;;3.97;3.47;;;;;;;;;;5001449;28;20018;-72
2022/05/31 11:02:25;;;;;;;4.60;3.70;;;;;;;;;;5010497;28;20022;-72
2022/05/31 11:04:56;;;;;;;5.53;4.03;;;;;;;;;;5012313;28;20032;-71
2022/05/31 11:07:30;;;;;;;6.65;3.75;;;;;;;;;;5007560;28;20030;-70
2022/05/31 11:12:53;;;;;;;7.38;4.07;;;;;;;;;;5015978;28;20041;-71
2022/05/31 11:15:37;;;;;;;6.65;4.15;;;;;;;;;;5008476;28;20060;-72
2022/05/31 11:18:20;;;;;;;11.57;3.92;;;;;;;;;;5001183;28;20018;-72
2022/05/31 11:20:55;;;;;;;7.10;4.30;;;;;;;;;;5002252;28;20057;-73
2022/05/31 11:23:21;;;;;;;7.38;3.55;;;;;;;;;;5007175;28;20044;-72
2022/05/31 11:26:07;;;;;;;4.93;3.55;;;;;;;;;;4993899;28;20021;-72
2022/05/31 11:28:38;;;;;;;5.28;3.30;;;;;;;;;;5003611;28;20030;-73
2022/05/31 11:31:36;;;;;;;4.70;3.40;;;;;;;;;;5014865;28;20071;-75
2022/05/31 11:34:02;;;;;;;8.73;3.90;;;;;;;;;;4954561;28;20099;-74
2022/05/31 11:36:41;;;;;;;6.10;3.45;;;;;;;;;;5020856;28;20494;-72
2022/05/31 11:39:25;;;;;;;5.30;3.60;;;;;;;;;;5006226;28;20480;-74
2022/05/31 11:42:09;;;;;;;4.30;3.90;;;;;;;;;;5006575;28;20080;-78
2022/05/31 11:44:43;;;;;;;5.95;3.60;;;;;;;;;;4996208;28;20033;-74
2022/05/31 11:47:30;;;;;;;10.88;4.00;;;;;;;;;;5016761;28;20021;-74
2022/05/31 11:49:56;;;;;;;6.70;4.72;;;;;;;;;;4993536;28;20022;-80
2022/05/31 11:52:28;;;;;;;6.22;3.90;;;;;;;;;;5020652;28;20032;-72
2022/05/31 11:57:40;;;;;;;5.35;4.18;;;;;;;;;;5014251;28;20519;-73
2022/05/31 12:00:09;;;;;;;5.85;4.18;;;;;;;;;;5002982;28;20033;-72
2022/05/31 12:02:39;;;;;;;8.15;4.63;;;;;;;;;;5006373;28;20045;-72
2022/05/31 12:05:10;;;;;;;6.80;4.50;;;;;;;;;;5017676;28;20104;-73
2022/05/31 12:07:48;;;;;;;6.43;4.68;;;;;;;;;;4992263;28;20184;-75
2022/05/31 12:10:19;;;;;;;7.57;4.78;;;;;;;;;;5012168;28;20018;-74
2022/05/31 12:12:45;;;;;;;12.00;4.28;;;;;;;;;;4999883;28;20480;-73
2022/05/31 12:15:18;;;;;;;7.38;4.50;;;;;;;;;;5005374;28;20025;-74
2022/05/31 12:17:47;;;;;;;6.55;4.70;;;;;;;;;;5009715;28;20037;-73
2022/05/31 12:20:21;;;;;;;5.88;4.50;;;;;;;;;;4993701;28;20027;-75
2022/05/31 12:22:52;;;;;;;6.15;4.53;;;;;;;;;;4996639;28;20030;-74
2022/05/31 12:25:20;;;;;;;6.32;4.50;;;;;;;;;;4999575;28;20480;-74
2022/05/31 12:27:49;;;;;;;6.45;5.53;;;;;;;;;;4996124;28;20026;-78
2022/05/31 12:30:33;;;;;;;8.57;5.10;;;;;;;;;;5003911;28;20030;-78
2022/05/31 12:32:58;;;;;;;9.68;5.30;;;;;;;;;;5000967;28;20030;-75
2022/05/31 12:35:29;;;;;;;8.00;5.38;;;;;;;;;;5020691;28;20527;-78
2022/05/31 12:38:00;;;;;;;8.23;5.78;;;;;;;;;;5005276;28;20052;-74
2022/05/31 12:40:29;;;;;;;9.20;5.72;;;;;;;;;;5006258;28;20030;-74
2022/05/31 12:42:54;;;;;;;11.10;6.90;;;;;;;;;;5014998;28;20117;-77
2022/05/31 12:45:37;;;;;;;8.65;5.97;;;;;;;;;;5007777;28;20149;-75
2022/05/31 12:48:11;;;;;;;5.00;4.10;;;;;;;;;;5000273;28;20480;-76
2022/05/31 12:50:45;;;;;;;5.47;3.92;;;;;;;;;;5007366;28;20443;-81
2022/05/31 12:55:36;;;;;;;5.97;5.40;;;;;;;;;;5010414;28;20533;-76
2022/05/31 13:00:51;;;;;;;6.50;3.72;;;;;;;;;;5009263;28;20059;-74
2022/05/31 13:03:32;;;;;;;4.97;4.13;;;;;;;;;;5003122;28;20068;-74
2022/05/31 13:05:57;;;;;;;6.85;3.78;;;;;;;;;;5000664;28;20057;-74
2022/05/31 13:08:42;;;;;;;4.70;3.50;;;;;;;;;;5002777;28;20022;-73
2022/05/31 13:19:38;;;;;;;3.78;3.08;;;;;;;;;;5007784;28;20085;-74
2022/05/31 13:22:08;;;;;;;3.33;3.00;;;;;;;;;;5005050;28;20041;-73
2022/05/31 13:24:35;;;;;;;3.30;3.10;;;;;;;;;;5020687;28;20468;-73
2022/05/31 13:27:00;;;;;;;5.45;3.20;;;;;;;;;;5015188;28;20457;-72
2022/05/31 13:29:25;;;;;;;4.93;2.97;;;;;;;;;;5002597;28;20033;-74
2022/05/31 13:31:55;;;;;;;4.20;2.80;;;;;;;;;;5012176;28;20033;-75
2022/05/31 13:34:25;;;;;;;3.17;2.90;;;;;;;;;;4999603;28;20377;-75
2022/05/31 13:36:51;;;;;;;4.50;3.40;;;;;;;;;;5015412;28;20328;-76
2022/05/31 13:39:16;;;;;;;3.57;3.23;;;;;;;;;;5000308;28;20068;-74
2022/05/31 13:41:47;;;;;;;3.80;2.60;;;;;;;;;;4993501;28;20266;-73
2022/05/31 13:44:12;;;;;;;5.10;2.67;;;;;;;;;;5019911;28;20037;-74
2022/05/31 13:46:42;;;;;;;4.13;3.13;;;;;;;;;;5007273;28;20033;-71
2022/05/31 13:49:27;;;;;;;5.65;3.60;;;;;;;;;;5012997;28;20477;-73
2022/05/31 13:51:54;;;;;;;4.00;3.60;;;;;;;;;;4982086;28;20183;-75
2022/05/31 13:54:21;;;;;;;7.80;3.33;;;;;;;;;;5000860;28;20018;-78
2022/05/31 13:56:48;;;;;;;5.75;3.47;;;;;;;;;;5005773;28;20346;-73
2022/05/31 13:59:13;;;;;;;8.15;3.22;;;;;;;;;;4999032;28;20111;-72
2022/05/31 14:01:40;;;;;;;4.53;2.77;;;;;;;;;;5016405;28;20052;-75
2022/05/31 14:04:10;;;;;;;3.50;2.88;;;;;;;;;;5017593;28;20140;-73
2022/05/31 14:06:37;;;;;;;3.70;3.10;;;;;;;;;;5006043;28;20034;-71
2022/05/31 14:09:04;;;;;;;4.63;2.78;;;;;;;;;;5014411;28;20029;-70
2022/05/31 14:11:32;;;;;;;5.30;3.40;;;;;;;;;;5018131;28;20038;-72
2022/05/31 14:13:59;;;;;;;4.05;2.63;;;;;;;;;;5022615;28;20404;-72
2022/05/31 14:16:28;;;;;;;3.13;2.72;;;;;;;;;;5015489;28;20067;-74
2022/05/31 14:18:55;;;;;;;3.10;2.67;;;;;;;;;;5015136;28;20368;-70
2022/05/31 14:21:22;;;;;;;3.55;2.85;;;;;;;;;;5001992;28;20026;-72
2022/05/31 14:23:47;;;;;;;4.22;3.30;;;;;;;;;;5015964;28;20021;-71
2022/05/31 14:26:14;;;;;;;3.83;3.42;;;;;;;;;;5024032;28;20372;-73
2022/05/31 14:28:59;;;;;;;5.53;3.13;;;;;;;;;;5001720;28;20074;-75
2022/05/31 14:31:25;;;;;;;4.85;3.10;;;;;;;;;;5013457;28;20144;-72
2022/05/31 14:33:50;;;;;;;3.45;3.15;;;;;;;;;;5014759;28;20040;-74
2022/05/31 14:36:28;;;;;;;2.57;2.37;;;;;;;;;;5009917;28;20049;-71
2022/05/31 14:38:54;;;;;;;3.75;2.63;;;;;;;;;;5007204;28;20330;-73
2022/05/31 14:41:20;;;;;;;3.10;2.60;;;;;;;;;;4992837;28;20022;-72
2022/05/31 14:43:48;;;;;;;3.85;2.38;;;;;;;;;;5017098;28;20034;-71
2022/05/31 14:46:23;;;;;;;3.25;2.28;;;;;;;;;;5013968;28;20026;-71
2022/05/31 14:48:49;;;;;;;3.35;2.85;;;;;;;;;;5016773;28;20039;-71
2022/05/31 14:51:16;;;;;;;4.68;3.10;;;;;;;;;;5007633;28;20034;-71
2022/05/31 14:53:43;;;;;;;6.32;3.70;;;;;;;;;;5029273;28;20025;-71
2022/05/31 14:56:38;;;;;;;6.53;2.97;;;;;;;;;;5014221;28;20021;-71
2022/05/31 14:59:05;;;;;;;3.20;2.42;;;;;;;;;;4985923;28;20030;-71
2022/05/31 15:01:34;;;;;;;3.15;2.60;;;;;;;;;;5010496;28;20065;-71
2022/05/31 15:04:05;;;;;;;3.95;2.63;;;;;;;;;;4999097;28;20041;-72
2022/05/31 15:06:33;;;;;;;3.15;2.63;;;;;;;;;;5007708;28;20053;-71
2022/05/31 15:09:10;;;;;;;4.25;2.58;;;;;;;;;;4991069;28;20091;-71
2022/05/31 15:19:47;;;;;;;2.97;2.40;;;;;;;;;;5008938;28;20021;-71
2022/05/31 15:22:14;;;;;;;4.20;2.90;;;;;;;;;;5008226;28;20030;-71
2022/05/31 15:24:44;;;;;;;4.00;2.30;;;;;;;;;;5018105;28;20251;-71
2022/05/31 15:27:13;;;;;;;2.63;2.42;;;;;;;;;;5017399;28;20021;-72
2022/05/31 15:29:38;;;;;;;4.57;2.50;;;;;;;;;;5011136;28;20792;-71
2022/05/31 15:32:03;;;;;;;4.17;2.57;;;;;;;;;;5018432;28;20041;-74
2022/05/31 15:34:28;;;;;;;4.20;2.80;;;;;;;;;;5016197;28;20029;-72
2022/05/31 15:36:57;;;;;;;2.60;2.40;;;;;;;;;;5009693;28;20128;-71